createdAt,value
2023-01-05T00:00:08.600Z,25.37
2023-01-05T00:02:40.903Z,18.67
2023-01-05T00:05:07.504Z,22.70
2023-01-05T00:07:33.834Z,21.80
2023-01-05T00:10:00.162Z,19.17
2023-01-05T00:12:45.132Z,14.83
2023-01-05T00:15:30.005Z,14.53
2023-01-05T00:18:14.623Z,20.87
2023-01-05T00:20:59.455Z,15.57
2023-01-05T00:23:25.828Z,25.83
2023-01-05T00:25:52.171Z,28.27
2023-01-05T00:28:18.525Z,22.07
2023-01-05T00:30:46.770Z,26.40
2023-01-05T00:33:17.285Z,20.37
2023-01-05T00:35:43.857Z,14.27
2023-01-05T00:38:10.556Z,30.73
2023-01-05T00:40:38.470Z,18.23
2023-01-05T00:43:04.891Z,19.33
2023-01-05T00:45:31.371Z,23.73
2023-01-05T00:47:57.830Z,18.67
2023-01-05T00:50:24.287Z,12.10
2023-01-05T00:52:50.877Z,19.33
2023-01-05T00:55:17.528Z,19.20
2023-01-05T00:57:43.981Z,16.03
2023-01-05T01:00:15.039Z,25.40
2023-01-05T01:02:41.455Z,28.83
2023-01-05T01:05:08.197Z,22.73
2023-01-05T01:07:34.564Z,17.53
2023-01-05T01:10:00.900Z,20.87
2023-01-05T01:12:27.267Z,18.67
2023-01-05T01:14:53.670Z,29.97
2023-01-05T01:17:20.125Z,24.17
2023-01-05T01:19:46.576Z,21.33
2023-01-05T01:22:13.904Z,24.10
2023-01-05T01:24:40.457Z,21.77
2023-01-05T01:27:06.921Z,18.23
2023-01-05T01:29:33.415Z,16.07
2023-01-05T01:31:59.936Z,20.60
2023-01-05T01:34:26.546Z,27.63
2023-01-05T01:36:55.167Z,25.43
2023-01-05T01:39:24.106Z,22.47
2023-01-05T01:41:55.911Z,22.87
2023-01-05T01:44:53.491Z,22.47
2023-01-05T01:47:29.767Z,13.27
2023-01-05T01:49:58.849Z,23.60
2023-01-05T01:52:29.290Z,21.63
2023-01-05T01:54:56.949Z,28.83
2023-01-05T01:57:26.470Z,27.47
2023-01-05T01:59:53.006Z,20.63
2023-01-05T02:02:21.653Z,23.53
2023-01-05T02:04:48.898Z,31.53
2023-01-05T02:07:16.196Z,29.53
2023-01-05T02:09:43.814Z,27.63
2023-01-05T02:12:27.386Z,20.83
2023-01-05T02:15:09.192Z,17.20
2023-01-05T02:18:08.691Z,14.53
2023-01-05T02:21:08.031Z,12.73
2023-01-05T02:24:18.015Z,27.83
2023-01-05T02:27:15.252Z,20.90
2023-01-05T02:30:16.284Z,29.40
2023-01-05T02:33:07.995Z,29.37
2023-01-05T02:35:51.086Z,25.43
2023-01-05T02:38:40.522Z,26.67
2023-01-05T02:41:20.644Z,15.73
2023-01-05T02:43:47.117Z,18.03
2023-01-05T02:46:13.491Z,15.83
2023-01-05T02:48:41.889Z,19.00
2023-01-05T02:51:16.176Z,11.83
2023-01-05T02:54:09.448Z,15.83
2023-01-05T02:56:43.858Z,10.07
2023-01-05T02:59:20.632Z,20.67
2023-01-05T03:01:55.066Z,23.60
2023-01-05T03:04:32.798Z,22.27
2023-01-05T03:07:05.806Z,23.73
2023-01-05T03:09:37.921Z,16.97
2023-01-05T03:12:34.973Z,22.67
2023-01-05T03:15:20.799Z,20.63
2023-01-05T03:17:51.079Z,17.57
2023-01-05T03:20:23.079Z,17.43
2023-01-05T03:23:09.795Z,23.53
2023-01-05T03:25:58.348Z,26.20
2023-01-05T03:28:56.200Z,23.40
2023-01-05T03:31:59.210Z,18.87
2023-01-05T03:34:59.685Z,23.07
2023-01-05T03:37:35.377Z,14.13
2023-01-05T03:40:04.944Z,26.73
2023-01-05T03:42:35.272Z,17.07
2023-01-05T03:45:02.341Z,23.67
2023-01-05T03:47:28.746Z,18.57
2023-01-05T03:49:56.090Z,33.23
2023-01-05T03:52:22.684Z,21.87
2023-01-05T03:54:49.727Z,24.90
2023-01-05T03:57:16.122Z,27.97
2023-01-05T03:59:43.754Z,26.37
2023-01-05T04:02:10.226Z,25.90
2023-01-05T04:04:36.884Z,40.67
2023-01-05T04:07:07.340Z,14.03
2023-01-05T04:09:34.522Z,31.97
2023-01-05T04:12:01.756Z,24.30
2023-01-05T04:14:32.756Z,27.43
2023-01-05T04:16:59.680Z,14.97
2023-01-05T04:19:26.931Z,26.97
2023-01-05T04:21:54.832Z,33.80
2023-01-05T04:24:23.043Z,25.50
2023-01-05T04:26:49.657Z,30.00
2023-01-05T04:29:18.725Z,26.97
2023-01-05T04:31:48.533Z,17.20
2023-01-05T04:34:14.886Z,25.13
2023-01-05T04:36:43.040Z,33.37
2023-01-05T04:39:14.486Z,34.13
2023-01-05T04:41:41.716Z,31.20
2023-01-05T04:44:08.312Z,20.20
2023-01-05T04:46:35.307Z,33.40
2023-01-05T04:49:03.068Z,31.80
2023-01-05T04:51:29.567Z,26.73
2023-01-05T04:53:55.980Z,17.47
2023-01-05T04:56:24.285Z,22.23
2023-01-05T04:58:50.696Z,11.50
2023-01-05T05:01:18.474Z,22.57
2023-01-05T05:03:49.791Z,38.20
2023-01-05T05:06:19.290Z,19.30
2023-01-05T05:08:47.762Z,23.83
2023-01-05T05:11:14.573Z,24.40
2023-01-05T05:13:41.601Z,21.30
2023-01-05T05:16:08.412Z,18.97
2023-01-05T05:18:35.166Z,18.97
2023-01-05T05:21:03.468Z,18.37
2023-01-05T05:23:33.190Z,39.03
2023-01-05T05:26:00.143Z,21.07
2023-01-05T05:28:28.253Z,22.67
2023-01-05T05:30:56.172Z,25.53
2023-01-05T05:33:23.949Z,29.43
2023-01-05T05:35:50.914Z,32.10
2023-01-05T05:38:17.262Z,23.83
2023-01-05T05:40:43.614Z,33.67
2023-01-05T05:43:10.095Z,20.17
2023-01-05T05:45:36.445Z,29.43
2023-01-05T05:48:02.925Z,41.33
2023-01-05T05:50:29.340Z,33.77
2023-01-05T05:52:55.661Z,21.30
2023-01-05T05:55:22.056Z,30.53
2023-01-05T05:57:48.426Z,32.07
2023-01-05T06:00:15.276Z,20.80
2023-01-05T06:02:41.710Z,19.30
2023-01-05T06:05:08.764Z,32.67
2023-01-05T06:07:35.134Z,38.10
2023-01-05T06:10:01.457Z,34.37
2023-01-05T06:12:27.930Z,30.17
2023-01-05T06:14:54.317Z,31.80
2023-01-05T06:17:20.651Z,32.70
2023-01-05T06:19:47.002Z,21.13
2023-01-05T06:22:13.362Z,20.77
2023-01-05T06:24:39.909Z,39.57
2023-01-05T06:27:06.272Z,30.40
2023-01-05T06:29:32.603Z,28.07
2023-01-05T06:31:58.984Z,27.87
2023-01-05T06:34:25.345Z,28.10
2023-01-05T06:36:51.705Z,25.47
2023-01-05T06:39:18.118Z,22.20
2023-01-05T06:41:44.614Z,47.07
2023-01-05T06:44:11.188Z,25.87
2023-01-05T06:46:37.569Z,32.40
2023-01-05T06:49:03.961Z,38.93
2023-01-05T06:51:30.431Z,31.77
2023-01-05T06:53:56.842Z,51.90
2023-01-05T06:56:23.262Z,24.20
2023-01-05T06:58:49.611Z,26.23
2023-01-05T07:01:16.065Z,27.33
2023-01-05T07:03:42.522Z,42.80
2023-01-05T07:06:14.609Z,34.73
2023-01-05T07:08:41.802Z,36.00
2023-01-05T07:11:08.323Z,36.13
2023-01-05T07:13:34.819Z,38.17
2023-01-05T07:16:01.233Z,37.10
2023-01-05T07:18:27.644Z,32.77
2023-01-05T07:20:54.036Z,35.73
2023-01-05T07:23:20.438Z,32.63
2023-01-05T07:25:46.803Z,28.17
2023-01-05T07:28:13.785Z,46.53
2023-01-05T07:30:40.140Z,34.97
2023-01-05T07:33:06.587Z,24.27
2023-01-05T07:35:33.057Z,34.77
2023-01-05T07:37:59.415Z,22.43
2023-01-05T07:40:25.864Z,35.50
2023-01-05T07:42:53.346Z,29.87
2023-01-05T07:45:20.918Z,33.80
2023-01-05T07:47:47.286Z,39.43
2023-01-05T07:50:13.729Z,31.80
2023-01-05T07:52:40.137Z,34.90
2023-01-05T07:55:06.977Z,42.17
2023-01-05T07:57:33.417Z,27.03
2023-01-05T07:59:59.793Z,34.47
2023-01-05T08:02:32.228Z,42.53
2023-01-05T08:05:02.202Z,39.33
2023-01-05T08:07:28.571Z,33.13
2023-01-05T08:10:13.658Z,34.17
2023-01-05T08:13:00.037Z,33.27
2023-01-05T08:15:26.602Z,41.70
2023-01-05T08:17:52.956Z,34.37
2023-01-05T08:20:19.433Z,32.83
2023-01-05T08:22:51.036Z,40.17
2023-01-05T08:25:17.579Z,42.23
2023-01-05T08:27:44.085Z,49.47
2023-01-05T08:30:13.328Z,32.27
2023-01-05T08:32:40.822Z,50.43
2023-01-05T08:35:07.560Z,34.03
2023-01-05T08:37:33.933Z,38.43
2023-01-05T08:40:00.355Z,25.03
2023-01-05T08:42:26.725Z,41.63
2023-01-05T08:44:53.121Z,40.37
2023-01-05T08:47:20.161Z,23.43
2023-01-05T08:49:47.301Z,35.13
2023-01-05T08:52:13.693Z,47.03
2023-01-05T08:54:40.085Z,36.60
2023-01-05T08:57:06.461Z,36.77
2023-01-05T08:59:32.840Z,32.57
2023-01-05T09:01:59.543Z,44.37
2023-01-05T09:04:27.576Z,36.60
2023-01-05T09:06:54.365Z,30.13
2023-01-05T09:09:24.172Z,28.87
2023-01-05T09:11:50.756Z,40.20
2023-01-05T09:14:17.427Z,45.17
2023-01-05T09:19:30.468Z,40.03
2023-01-05T09:21:56.921Z,38.27
2023-01-05T09:24:23.483Z,34.33
2023-01-05T09:26:50.426Z,28.13
2023-01-05T09:29:16.965Z,33.33
2023-01-05T09:31:43.870Z,48.20
2023-01-05T09:34:10.955Z,30.17
2023-01-05T09:36:38.870Z,42.40
2023-01-05T09:39:06.276Z,25.83
2023-01-05T09:41:47.387Z,36.83
2023-01-05T09:44:35.223Z,35.37
2023-01-05T09:47:15.205Z,29.53
2023-01-05T09:49:42.070Z,32.00
2023-01-05T09:52:10.558Z,36.27
2023-01-05T09:54:38.638Z,31.67
2023-01-05T09:57:09.483Z,44.37
2023-01-05T09:59:40.578Z,39.60
2023-01-05T10:02:19.135Z,40.17
2023-01-05T10:04:47.578Z,29.40
2023-01-05T10:07:27.002Z,33.83
2023-01-05T10:09:58.098Z,30.57
2023-01-05T10:12:53.259Z,39.37
2023-01-05T10:15:21.564Z,41.30
2023-01-05T10:17:48.388Z,28.17
2023-01-05T10:20:28.028Z,36.13
2023-01-05T10:23:18.511Z,37.20
2023-01-05T10:25:54.007Z,34.43
2023-01-05T10:28:51.208Z,21.07
2023-01-05T10:31:47.353Z,36.40
2023-01-05T10:34:22.641Z,22.83
2023-01-05T10:37:10.478Z,19.33
2023-01-05T10:40:00.750Z,20.50
2023-01-05T10:42:45.472Z,38.77
2023-01-05T10:45:15.291Z,19.23
2023-01-05T10:47:44.939Z,40.97
2023-01-05T10:50:40.553Z,28.73
2023-01-05T10:53:14.675Z,25.07
2023-01-05T10:55:51.337Z,32.20
2023-01-05T10:58:22.863Z,21.23
2023-01-05T11:00:50.119Z,31.43
2023-01-05T11:03:18.836Z,30.30
2023-01-05T11:05:48.068Z,30.13
2023-01-05T11:08:21.086Z,27.80
2023-01-05T11:10:57.791Z,29.50
2023-01-05T11:13:42.463Z,27.77
2023-01-05T11:16:21.317Z,33.57
2023-01-05T11:18:52.273Z,29.77
2023-01-05T11:21:41.419Z,20.27
2023-01-05T11:24:25.525Z,23.20
2023-01-05T11:26:56.534Z,25.10
2023-01-05T11:29:22.945Z,40.97
2023-01-05T11:32:01.395Z,30.27
2023-01-05T11:34:49.054Z,34.37
2023-01-05T11:37:25.196Z,34.83
2023-01-05T11:40:02.836Z,19.30
2023-01-05T11:42:32.856Z,31.57
2023-01-05T11:45:07.417Z,20.47
2023-01-05T11:47:43.508Z,25.93
2023-01-05T11:50:13.629Z,41.83
2023-01-05T11:52:49.872Z,39.00
2023-01-05T11:55:33.547Z,29.97
2023-01-05T11:58:17.651Z,30.60
2023-01-05T12:01:10.050Z,23.90
2023-01-05T12:03:59.266Z,38.90
2023-01-05T12:06:34.481Z,19.07
2023-01-05T12:09:19.736Z,21.90
2023-01-05T12:11:58.773Z,21.37
2023-01-05T12:14:56.002Z,26.87
2023-01-05T12:18:03.770Z,23.10
2023-01-05T12:20:42.311Z,25.43
2023-01-05T12:23:19.290Z,29.47
2023-01-05T12:26:13.568Z,25.80
2023-01-05T12:35:44.895Z,26.13
2023-01-05T12:38:33.130Z,21.37
2023-01-05T12:41:23.248Z,18.13
2023-01-05T12:44:14.268Z,23.83
2023-01-05T12:47:05.354Z,17.57
2023-01-05T12:50:05.074Z,20.63
2023-01-05T12:52:36.773Z,29.93
2023-01-05T12:55:18.084Z,23.33
2023-01-05T12:57:54.066Z,22.40
2023-01-05T13:00:21.401Z,21.17
2023-01-05T13:03:01.809Z,16.63
2023-01-05T13:05:43.079Z,19.03
2023-01-05T13:08:29.255Z,26.40
2023-01-05T13:11:16.136Z,23.77
2023-01-05T13:13:52.701Z,19.97
2023-01-05T13:16:23.415Z,14.53
2023-01-05T13:19:02.209Z,22.90
2023-01-05T13:21:29.253Z,20.43
2023-01-05T13:24:01.614Z,22.00
2023-01-05T13:26:35.769Z,19.23
2023-01-05T13:29:04.461Z,22.73
2023-01-05T13:31:45.003Z,19.87
2023-01-05T13:34:25.603Z,28.20
2023-01-05T13:37:30.499Z,28.53
2023-01-05T13:40:18.433Z,26.67
2023-01-05T13:42:47.790Z,20.97
2023-01-05T13:45:41.400Z,20.87
2023-01-05T13:48:44.561Z,27.17
2023-01-05T13:51:19.772Z,18.83
2023-01-05T13:53:48.245Z,20.60
2023-01-05T13:56:19.641Z,30.73
2023-01-05T13:58:50.450Z,20.33
2023-01-05T14:01:34.192Z,16.53
2023-01-05T14:04:01.315Z,18.67
2023-01-05T14:06:34.497Z,25.37
2023-01-05T14:09:14.813Z,33.63
2023-01-05T14:12:16.016Z,27.67
2023-01-05T14:15:00.487Z,15.60
2023-01-05T14:17:50.670Z,25.37
2023-01-05T14:20:31.189Z,22.40
2023-01-05T14:22:58.303Z,15.20
2023-01-05T14:25:50.157Z,13.70
2023-01-05T14:28:30.533Z,22.20
2023-01-05T14:31:16.157Z,20.87
2023-01-05T14:33:57.713Z,20.83
2023-01-05T14:36:52.841Z,18.43
2023-01-05T14:39:20.048Z,28.17
2023-01-05T14:42:16.154Z,15.23
2023-01-05T14:44:49.491Z,15.97
2023-01-05T14:47:17.604Z,23.23
2023-01-05T14:49:55.677Z,27.20
2023-01-05T14:52:53.158Z,30.27
2023-01-05T14:55:41.964Z,24.57
2023-01-05T14:58:35.624Z,27.80
2023-01-05T15:01:17.322Z,18.47
2023-01-05T15:04:08.401Z,16.87
2023-01-05T15:06:34.690Z,21.47
2023-01-05T15:09:25.612Z,26.77
2023-01-05T15:12:13.496Z,14.47
2023-01-05T15:14:45.855Z,24.23
2023-01-05T15:17:50.259Z,20.07
2023-01-05T15:20:46.064Z,25.07
2023-01-05T15:26:27.938Z,30.23
2023-01-05T15:29:28.292Z,26.93
2023-01-05T15:32:03.141Z,13.30
2023-01-05T15:34:38.104Z,30.17
2023-01-05T15:37:28.965Z,30.63
2023-01-05T15:39:57.115Z,31.10
2023-01-05T15:42:28.494Z,30.70
2023-01-05T15:44:56.827Z,36.97
2023-01-05T15:47:26.946Z,29.57
2023-01-05T15:49:58.464Z,31.43
2023-01-05T15:52:32.236Z,28.50
2023-01-05T15:55:11.768Z,24.63
2023-01-05T15:57:38.090Z,29.43
2023-01-05T16:00:18.243Z,20.03
2023-01-05T16:02:44.933Z,26.70
2023-01-05T16:05:23.143Z,30.40
2023-01-05T16:08:18.479Z,26.13
2023-01-05T16:10:53.630Z,21.13
2023-01-05T16:13:25.923Z,22.37
2023-01-05T16:15:55.707Z,28.63
2023-01-05T16:18:27.132Z,45.20
2023-01-05T16:20:55.864Z,20.90
2023-01-05T16:23:38.968Z,28.93
2023-01-05T16:26:06.503Z,19.47
2023-01-05T16:28:32.925Z,21.53
2023-01-05T16:30:59.333Z,19.13
2023-01-05T16:33:38.384Z,26.57
2023-01-05T16:36:22.074Z,39.43
2023-01-05T16:38:48.917Z,25.67
2023-01-05T16:41:24.138Z,22.63
2023-01-05T16:44:03.064Z,24.17
2023-01-05T16:46:33.238Z,19.17
2023-01-05T16:49:33.864Z,25.40
2023-01-05T16:52:01.132Z,41.13
2023-01-05T16:54:36.852Z,23.00
2023-01-05T16:57:31.853Z,28.17
2023-01-05T16:59:58.430Z,26.87
2023-01-05T17:02:45.346Z,22.90
2023-01-05T17:05:15.416Z,38.20
2023-01-05T17:07:43.887Z,23.70
2023-01-05T17:10:20.853Z,33.47
2023-01-05T17:13:05.577Z,24.50
2023-01-05T17:15:36.192Z,25.87
2023-01-05T17:20:54.999Z,22.87
2023-01-05T17:23:23.639Z,25.80
2023-01-05T17:28:24.413Z,28.57
2023-01-05T17:30:51.731Z,22.33
2023-01-05T17:33:18.429Z,35.73
2023-01-05T17:38:14.804Z,27.40
2023-01-05T17:40:41.483Z,35.60
2023-01-05T17:43:07.910Z,26.00
2023-01-05T17:45:37.740Z,29.97
2023-01-05T17:48:04.271Z,33.83
2023-01-05T17:53:04.592Z,33.27
2023-01-05T17:55:31.625Z,29.57
2023-01-05T17:57:59.490Z,19.00
2023-01-05T18:00:27.605Z,28.67
2023-01-05T18:02:54.809Z,28.57
2023-01-05T18:05:21.802Z,28.37
2023-01-05T18:07:49.151Z,28.33
2023-01-05T18:10:19.238Z,21.97
2023-01-05T18:12:45.763Z,26.97
2023-01-05T18:15:13.192Z,38.07
2023-01-05T18:17:40.316Z,21.73
2023-01-05T18:20:07.393Z,19.27
2023-01-05T18:22:33.920Z,28.27
2023-01-05T18:25:00.353Z,26.47
2023-01-05T18:27:26.684Z,26.87
2023-01-05T18:29:56.596Z,27.23
2023-01-05T18:32:23.708Z,18.53
2023-01-05T18:34:50.065Z,24.13
2023-01-05T18:37:23.331Z,21.13
2023-01-05T18:39:49.917Z,22.03
2023-01-05T18:42:16.381Z,20.37
2023-01-05T18:44:42.720Z,21.43
2023-01-05T18:47:09.194Z,14.87
2023-01-05T18:49:35.631Z,22.40
2023-01-05T18:52:05.257Z,24.27
2023-01-05T18:54:31.687Z,24.93
2023-01-05T18:56:58.062Z,26.07
2023-01-05T18:59:25.401Z,18.30
2023-01-05T19:01:51.872Z,10.30
2023-01-05T19:04:18.599Z,12.07
2023-01-05T19:06:44.970Z,13.97
2023-01-05T19:09:12.955Z,20.13
2023-01-05T19:11:44.370Z,15.13
2023-01-05T19:14:10.904Z,9.27
2023-01-05T19:16:37.535Z,21.70
2023-01-05T19:19:08.316Z,20.10
2023-01-05T19:21:37.647Z,16.67
2023-01-05T19:24:06.489Z,9.23
2023-01-05T19:26:33.833Z,20.53
2023-01-05T19:29:02.331Z,12.60
2023-01-05T19:31:29.745Z,15.57
2023-01-05T19:33:58.843Z,15.37
2023-01-05T19:36:32.215Z,12.37
2023-01-05T19:39:03.906Z,10.60
2023-01-05T19:41:30.897Z,22.17
2023-01-05T19:43:57.774Z,12.33
2023-01-05T19:46:27.038Z,7.83
2023-01-05T19:48:54.133Z,11.63
2023-01-05T19:51:23.268Z,18.77
2023-01-05T19:53:57.869Z,13.57
2023-01-05T19:56:31.212Z,8.20
2023-01-05T19:59:00.062Z,15.07
2023-01-05T20:01:28.573Z,13.50
2023-01-05T20:03:55.877Z,13.03
2023-01-05T20:06:23.504Z,13.37
2023-01-05T20:08:54.617Z,13.73
2023-01-05T20:11:39.417Z,11.37
2023-01-05T20:14:13.511Z,10.37
2023-01-05T20:16:41.548Z,14.10
2023-01-05T20:19:08.974Z,10.27
2023-01-05T20:21:35.433Z,9.27
2023-01-05T20:24:03.264Z,10.93
2023-01-05T20:26:31.135Z,9.33
2023-01-05T20:29:01.262Z,12.20
2023-01-05T20:31:34.813Z,9.47
2023-01-05T20:34:05.622Z,14.83
2023-01-05T20:36:32.058Z,10.80
2023-01-05T20:38:59.064Z,9.87
2023-01-05T20:41:29.038Z,9.43
2023-01-05T20:43:56.575Z,15.17
2023-01-05T20:46:30.157Z,17.47
2023-01-05T20:48:57.218Z,10.23
2023-01-05T20:51:24.595Z,15.30
2023-01-05T20:53:52.794Z,14.87
2023-01-05T20:56:26.530Z,13.93
2023-01-05T20:58:54.076Z,10.70
2023-01-05T21:01:21.961Z,10.97
2023-01-05T21:03:49.947Z,14.13
2023-01-05T21:06:17.742Z,13.03
2023-01-05T21:08:49.053Z,19.53
2023-01-05T21:11:17.541Z,15.87
2023-01-05T21:13:49.370Z,11.20
2023-01-05T21:16:19.496Z,13.87
2023-01-05T21:18:46.688Z,14.77
2023-01-05T21:21:18.686Z,22.10
2023-01-05T21:23:47.287Z,12.00
2023-01-05T21:26:14.692Z,18.83
2023-01-05T21:28:43.565Z,16.83
2023-01-05T21:31:14.195Z,16.20
2023-01-05T21:33:41.246Z,12.57
2023-01-05T21:36:12.501Z,15.33
2023-01-05T21:39:02.298Z,13.13
2023-01-05T21:41:44.042Z,16.53
2023-01-05T21:44:12.195Z,13.10
2023-01-05T21:46:39.761Z,22.40
2023-01-05T21:49:07.626Z,19.33
2023-01-05T21:51:52.412Z,8.03
2023-01-05T21:54:38.152Z,6.67
2023-01-05T21:57:04.584Z,5.67
2023-01-05T21:59:31.202Z,6.50
2023-01-05T22:01:57.577Z,4.97
2023-01-05T22:04:23.993Z,3.70
2023-01-05T22:06:50.991Z,3.03
2023-01-05T22:09:17.999Z,3.60
2023-01-05T22:11:44.536Z,2.63
2023-01-05T22:14:11.166Z,3.17
2023-01-05T22:16:37.636Z,2.70
2023-01-05T22:19:04.167Z,2.73
2023-01-05T22:21:31.279Z,2.40
2023-01-05T22:23:58.016Z,3.03
2023-01-05T22:26:24.819Z,1.77
2023-01-05T22:28:51.906Z,1.80
2023-01-05T22:31:24.412Z,2.43
2023-01-05T22:33:53.063Z,2.20
2023-01-05T22:36:20.939Z,7.43
2023-01-05T22:38:49.087Z,4.17
2023-01-05T22:41:19.084Z,3.07
2023-01-05T22:43:46.138Z,4.30
2023-01-05T22:46:24.559Z,4.07
2023-01-05T22:48:53.036Z,7.87
2023-01-05T22:51:25.862Z,6.13
2023-01-05T22:53:52.633Z,6.33
2023-01-05T22:56:21.103Z,7.70
2023-01-05T22:58:48.363Z,17.67
2023-01-05T23:01:29.370Z,7.83
2023-01-05T23:03:58.363Z,9.27
2023-01-05T23:06:26.101Z,10.37
2023-01-05T23:08:53.631Z,8.73
2023-01-05T23:11:22.729Z,8.37
2023-01-05T23:13:50.641Z,9.07
2023-01-05T23:16:17.454Z,9.50
2023-01-05T23:18:44.695Z,10.07
2023-01-05T23:21:12.981Z,11.27
2023-01-05T23:23:40.250Z,10.43
2023-01-05T23:26:08.947Z,11.77
2023-01-05T23:28:35.624Z,13.23
2023-01-05T23:31:02.050Z,13.87
2023-01-05T23:33:31.322Z,14.60
2023-01-05T23:35:57.730Z,16.67
2023-01-05T23:38:25.248Z,16.77
2023-01-05T23:40:55.539Z,16.77
2023-01-05T23:43:28.317Z,13.33
2023-01-05T23:46:04.091Z,15.67
2023-01-05T23:48:30.669Z,10.97
2023-01-05T23:50:58.005Z,12.97
2023-01-05T23:53:25.666Z,10.77
2023-01-05T23:55:52.653Z,14.27
2023-01-05T23:58:19.049Z,12.73
